sensor_id;sensor_type;location;lat;lon;timestamp;pressure;altitude;pressure_sealevel;temperature;humidity
78932;BME280;68331;53.362;55.932;2023-10-19T00:00:41;100214.22;;;3.90;69.30
78932;BME280;68331;53.362;55.932;2023-10-19T00:03:11;100220.31;;;3.94;69.40
78932;BME280;68331;53.362;55.932;2023-10-19T00:05:38;100223.81;;;4.04;68.98
78932;BME280;68331;53.362;55.932;2023-10-19T00:08:06;100221.19;;;4.20;68.62
78932;BME280;68331;53.362;55.932;2023-10-19T00:10:54;100232.50;;;4.36;67.73
78932;BME280;68331;53.362;55.932;2023-10-19T00:13:35;100226.44;;;4.43;68.32
78932;BME280;68331;53.362;55.932;2023-10-19T00:16:02;100228.16;;;4.41;68.51
78932;BME280;68331;53.362;55.932;2023-10-19T00:18:33;100226.44;;;4.43;69.03
78932;BME280;68331;53.362;55.932;2023-10-19T00:21:01;100236.00;;;4.45;69.27
78932;BME280;68331;53.362;55.932;2023-10-19T00:23:47;100238.63;;;4.41;69.75
78932;BME280;68331;53.362;55.932;2023-10-19T00:26:13;100232.50;;;4.42;69.62
78932;BME280;68331;53.362;55.932;2023-10-19T00:28:58;100224.69;;;4.38;70.10
78932;BME280;68331;53.362;55.932;2023-10-19T00:31:29;100215.09;;;4.32;70.08
78932;BME280;68331;53.362;55.932;2023-10-19T00:33:59;100235.13;;;4.33;70.13
78932;BME280;68331;53.362;55.932;2023-10-19T00:36:27;100221.22;;;4.34;70.15
78932;BME280;68331;53.362;55.932;2023-10-19T00:38:56;100233.38;;;4.35;70.19
78932;BME280;68331;53.362;55.932;2023-10-19T00:41:25;100229.03;;;4.36;70.58
78932;BME280;68331;53.362;55.932;2023-10-19T00:43:58;100239.47;;;4.36;70.35
78932;BME280;68331;53.362;55.932;2023-10-19T00:46:37;100234.28;;;4.31;70.60
78932;BME280;68331;53.362;55.932;2023-10-19T00:49:03;100242.97;;;4.26;70.31
78932;BME280;68331;53.362;55.932;2023-10-19T00:51:37;100242.09;;;4.24;70.39
78932;BME280;68331;53.362;55.932;2023-10-19T00:54:16;100242.09;;;4.25;70.42
78932;BME280;68331;53.362;55.932;2023-10-19T00:56:47;100242.97;;;4.26;70.55
78932;BME280;68331;53.362;55.932;2023-10-19T00:59:17;100241.25;;;4.28;70.83
78932;BME280;68331;53.362;55.932;2023-10-19T01:01:54;100229.03;;;4.25;70.87
78932;BME280;68331;53.362;55.932;2023-10-19T01:04:29;100236.88;;;4.28;70.89
78932;BME280;68331;53.362;55.932;2023-10-19T01:06:59;100244.69;;;4.24;71.36
78932;BME280;68331;53.362;55.932;2023-10-19T01:09:38;100241.22;;;4.11;71.42
78932;BME280;68331;53.362;55.932;2023-10-19T01:12:05;100255.13;;;4.14;71.62
78932;BME280;68331;53.362;55.932;2023-10-19T01:17:52;100252.53;;;4.27;71.74
78932;BME280;68331;53.362;55.932;2023-10-19T01:23:09;100255.16;;;4.22;71.64
78932;BME280;68331;53.362;55.932;2023-10-19T01:30:54;100254.28;;;4.29;71.82
78932;BME280;68331;53.362;55.932;2023-10-19T01:33:21;100255.16;;;4.22;72.10
78932;BME280;68331;53.362;55.932;2023-10-19T01:35:48;100265.59;;;4.16;72.35
78932;BME280;68331;53.362;55.932;2023-10-19T01:38:33;100267.31;;;4.14;72.69
78932;BME280;68331;53.362;55.932;2023-10-19T01:41:01;100269.06;;;4.04;73.02
78932;BME280;68331;53.362;55.932;2023-10-19T01:43:32;100266.47;;;4.03;72.49
78932;BME280;68331;53.362;55.932;2023-10-19T01:45:59;100282.97;;;4.00;72.38
78932;BME280;68331;53.362;55.932;2023-10-19T01:48:31;100278.63;;;3.96;72.32
78932;BME280;68331;53.362;55.932;2023-10-19T01:51:03;100262.94;;;3.85;72.11
78932;BME280;68331;53.362;55.932;2023-10-19T01:53:34;100274.25;;;3.89;72.19
78932;BME280;68331;53.362;55.932;2023-10-19T01:56:02;100283.81;;;3.88;72.13
78932;BME280;68331;53.362;55.932;2023-10-19T01:58:36;100269.91;;;3.83;71.95
78932;BME280;68331;53.362;55.932;2023-10-19T02:01:04;100279.47;;;3.90;71.70
78932;BME280;68331;53.362;55.932;2023-10-19T02:03:43;100269.03;;;3.90;71.92
78932;BME280;68331;53.362;55.932;2023-10-19T02:06:11;100287.31;;;3.93;71.64
78932;BME280;68331;53.362;55.932;2023-10-19T02:09:00;100285.59;;;3.89;71.63
78932;BME280;68331;53.362;55.932;2023-10-19T02:11:35;100289.88;;;3.80;71.72
78932;BME280;68331;53.362;55.932;2023-10-19T02:14:04;100289.00;;;3.71;72.11
78932;BME280;68331;53.362;55.932;2023-10-19T02:16:44;100293.38;;;3.74;71.77
78932;BME280;68331;53.362;55.932;2023-10-19T02:19:17;100303.78;;;3.68;71.86
78932;BME280;68331;53.362;55.932;2023-10-19T02:21:43;100303.75;;;3.63;71.97
78932;BME280;68331;53.362;55.932;2023-10-19T02:24:14;100305.47;;;3.60;72.07
78932;BME280;68331;53.362;55.932;2023-10-19T02:26:42;100316.78;;;3.60;71.91
78932;BME280;68331;53.362;55.932;2023-10-19T02:29:09;100309.84;;;3.64;71.90
78932;BME280;68331;53.362;55.932;2023-10-19T02:31:40;100306.38;;;3.62;71.48
78932;BME280;68331;53.362;55.932;2023-10-19T02:34:08;100312.47;;;3.61;71.62
78932;BME280;68331;53.362;55.932;2023-10-19T02:36:38;100314.16;;;3.57;71.47
78932;BME280;68331;53.362;55.932;2023-10-19T02:39:10;100315.03;;;3.55;71.34
78932;BME280;68331;53.362;55.932;2023-10-19T02:41:42;100311.56;;;3.51;71.25
78932;BME280;68331;53.362;55.932;2023-10-19T02:44:17;100308.94;;;3.48;71.32
78932;BME280;68331;53.362;55.932;2023-10-19T02:46:46;100297.56;;;3.41;71.16
78932;BME280;68331;53.362;55.932;2023-10-19T02:49:14;100323.72;;;3.54;71.24
78932;BME280;68331;53.362;55.932;2023-10-19T02:51:45;100328.97;;;3.58;71.10
78932;BME280;68331;53.362;55.932;2023-10-19T02:54:13;100334.19;;;3.63;70.85
78932;BME280;68331;53.362;55.932;2023-10-19T02:56:54;100336.84;;;3.67;70.43
78932;BME280;68331;53.362;55.932;2023-10-19T02:59:24;100345.50;;;3.69;70.29
78932;BME280;68331;53.362;55.932;2023-10-19T03:01:56;100348.16;;;3.71;70.29
78932;BME280;68331;53.362;55.932;2023-10-19T03:04:38;100353.38;;;3.74;69.92
78932;BME280;68331;53.362;55.932;2023-10-19T03:07:05;100354.25;;;3.75;70.08
78932;BME280;68331;53.362;55.932;2023-10-19T03:09:31;100348.16;;;3.79;69.82
78932;BME280;68331;53.362;55.932;2023-10-19T03:12:02;100359.50;;;3.85;69.46
78932;BME280;68331;53.362;55.932;2023-10-19T03:14:32;100351.66;;;3.85;69.41
78932;BME280;68331;53.362;55.932;2023-10-19T03:17:00;100336.00;;;3.81;69.33
78932;BME280;68331;53.362;55.932;2023-10-19T03:19:28;100355.16;;;3.92;69.27
78932;BME280;68331;53.362;55.932;2023-10-19T03:21:54;100359.56;;;3.96;69.05
78932;BME280;68331;53.362;55.932;2023-10-19T03:24:22;100361.28;;;3.99;68.74
78932;BME280;68331;53.362;55.932;2023-10-19T03:27:09;100364.78;;;4.01;68.63
78932;BME280;68331;53.362;55.932;2023-10-19T03:29:47;100364.78;;;4.01;68.36
78932;BME280;68331;53.362;55.932;2023-10-19T03:32:19;100366.53;;;4.08;68.15
78932;BME280;68331;53.362;55.932;2023-10-19T03:34:49;100363.94;;;4.12;68.23
78932;BME280;68331;53.362;55.932;2023-10-19T03:37:16;100372.66;;;4.19;67.57
78932;BME280;68331;53.362;55.932;2023-10-19T03:39:45;100377.91;;;4.25;67.75
78932;BME280;68331;53.362;55.932;2023-10-19T03:42:12;100384.00;;;4.27;67.48
78932;BME280;68331;53.362;55.932;2023-10-19T03:44:40;100380.50;;;4.27;67.64
78932;BME280;68331;53.362;55.932;2023-10-19T03:47:09;100374.41;;;4.26;67.94
78932;BME280;68331;53.362;55.932;2023-10-19T03:49:39;100391.84;;;4.36;67.53
78932;BME280;68331;53.362;55.932;2023-10-19T03:52:07;100383.19;;;4.43;67.26
78932;BME280;68331;53.362;55.932;2023-10-19T03:54:40;100391.00;;;4.43;67.34
78932;BME280;68331;53.362;55.932;2023-10-19T03:57:07;100397.94;;;4.43;67.04
78932;BME280;68331;53.362;55.932;2023-10-19T03:59:39;100398.81;;;4.39;67.42
78932;BME280;68331;53.362;55.932;2023-10-19T04:02:04;100404.91;;;4.39;67.28
78932;BME280;68331;53.362;55.932;2023-10-19T04:04:36;100410.16;;;4.42;67.28
78932;BME280;68331;53.362;55.932;2023-10-19T04:07:02;100399.72;;;4.49;66.82
78932;BME280;68331;53.362;55.932;2023-10-19T04:09:37;100403.19;;;4.49;67.10
78932;BME280;68331;53.362;55.932;2023-10-19T04:12:28;100417.13;;;4.48;66.99
78932;BME280;68331;53.362;55.932;2023-10-19T04:14:58;100408.41;;;4.46;67.00
78932;BME280;68331;53.362;55.932;2023-10-19T04:17:35;100417.13;;;4.45;66.93
78932;BME280;68331;53.362;55.932;2023-10-19T04:20:06;100418.84;;;4.46;66.99
78932;BME280;68331;53.362;55.932;2023-10-19T04:22:55;100408.41;;;4.46;67.11
78932;BME280;68331;53.362;55.932;2023-10-19T04:25:31;100402.28;;;4.33;67.19
78932;BME280;68331;53.362;55.932;2023-10-19T04:27:57;100404.88;;;4.24;67.43
78932;BME280;68331;53.362;55.932;2023-10-19T04:30:23;100403.97;;;4.14;67.96
78932;BME280;68331;53.362;55.932;2023-10-19T04:32:50;100416.19;;;4.15;67.80
78932;BME280;68331;53.362;55.932;2023-10-19T04:35:17;100417.06;;;4.19;67.86
78932;BME280;68331;53.362;55.932;2023-10-19T04:37:53;100423.16;;;4.24;67.79
78932;BME280;68331;53.362;55.932;2023-10-19T04:40:20;100424.03;;;4.22;67.63
78932;BME280;68331;53.362;55.932;2023-10-19T04:42:47;100427.50;;;4.19;67.57
78932;BME280;68331;53.362;55.932;2023-10-19T04:45:13;100424.88;;;4.20;67.11
78932;BME280;68331;53.362;55.932;2023-10-19T04:47:40;100424.94;;;4.34;66.94
78932;BME280;68331;53.362;55.932;2023-10-19T04:50:07;100434.50;;;4.37;66.82
78932;BME280;68331;53.362;55.932;2023-10-19T04:52:33;100417.06;;;4.27;66.76
78932;BME280;68331;53.362;55.932;2023-10-19T04:54:59;100438.88;;;4.39;66.25
78932;BME280;68331;53.362;55.932;2023-10-19T04:57:28;100433.69;;;4.47;66.11
78932;BME280;68331;53.362;55.932;2023-10-19T04:59:54;100437.19;;;4.55;65.96
78932;BME280;68331;53.362;55.932;2023-10-19T05:02:21;100437.19;;;4.57;65.86
78932;BME280;68331;53.362;55.932;2023-10-19T05:04:47;100436.31;;;4.64;65.62
78932;BME280;68331;53.362;55.932;2023-10-19T05:07:15;100429.34;;;4.75;65.51
78932;BME280;68331;53.362;55.932;2023-10-19T05:09:44;100440.69;;;4.88;65.30
78932;BME280;68331;53.362;55.932;2023-10-19T05:12:11;100440.72;;;4.96;64.93
78932;BME280;68331;53.362;55.932;2023-10-19T05:14:38;100455.56;;;5.04;64.89
78932;BME280;68331;53.362;55.932;2023-10-19T05:17:05;100448.56;;;5.08;64.85
78932;BME280;68331;53.362;55.932;2023-10-19T05:19:32;100443.31;;;5.00;65.08
78932;BME280;68331;53.362;55.932;2023-10-19T05:22:00;100451.19;;;5.05;65.33
78932;BME280;68331;53.362;55.932;2023-10-19T05:24:27;100453.78;;;5.12;65.06
78932;BME280;68331;53.362;55.932;2023-10-19T05:26:56;100458.16;;;5.24;64.66
78932;BME280;68331;53.362;55.932;2023-10-19T05:29:22;100438.97;;;5.34;64.13
78932;BME280;68331;53.362;55.932;2023-10-19T05:31:53;100452.91;;;5.50;63.39
78932;BME280;68331;53.362;55.932;2023-10-19T05:34:22;100448.53;;;5.60;62.91
78932;BME280;68331;53.362;55.932;2023-10-19T05:36:49;100453.72;;;5.78;62.49
78932;BME280;68331;53.362;55.932;2023-10-19T05:39:16;100458.06;;;5.86;62.53
78932;BME280;68331;53.362;55.932;2023-10-19T05:41:42;100452.84;;;5.73;62.89
78932;BME280;68331;53.362;55.932;2023-10-19T05:44:08;100460.72;;;5.67;62.91
78932;BME280;68331;53.362;55.932;2023-10-19T05:46:34;100455.50;;;5.59;63.31
78932;BME280;68331;53.362;55.932;2023-10-19T05:49:02;100455.50;;;5.52;63.67
78932;BME280;68331;53.362;55.932;2023-10-19T05:51:30;100461.63;;;5.51;63.66
78932;BME280;68331;53.362;55.932;2023-10-19T05:53:57;100461.63;;;5.54;63.48
78932;BME280;68331;53.362;55.932;2023-10-19T05:56:29;100460.72;;;5.70;63.24
78932;BME280;68331;53.362;55.932;2023-10-19T05:58:57;100465.06;;;5.82;62.81
78932;BME280;68331;53.362;55.932;2023-10-19T06:01:24;100467.66;;;6.00;62.56
78932;BME280;68331;53.362;55.932;2023-10-19T06:03:51;100463.25;;;6.10;62.24
78932;BME280;68331;53.362;55.932;2023-10-19T06:06:19;100463.22;;;6.21;62.36
78932;BME280;68331;53.362;55.932;2023-10-19T06:08:46;100466.66;;;6.31;62.32
78932;BME280;68331;53.362;55.932;2023-10-19T06:11:12;100468.41;;;6.30;62.17
78932;BME280;68331;53.362;55.932;2023-10-19T06:13:39;100468.38;;;6.39;61.81
78932;BME280;68331;53.362;55.932;2023-10-19T06:16:05;100467.44;;;6.52;61.59
78932;BME280;68331;53.362;55.932;2023-10-19T06:18:33;100471.72;;;6.66;61.33
78932;BME280;68331;53.362;55.932;2023-10-19T06:20:59;100468.19;;;6.71;61.22
78932;BME280;68331;53.362;55.932;2023-10-19T06:23:24;100467.28;;;6.79;61.39
78932;BME280;68331;53.362;55.932;2023-10-19T06:25:50;100468.94;;;6.92;61.25
78932;BME280;68331;53.362;55.932;2023-10-19T06:28:20;100470.53;;;7.13;60.86
78932;BME280;68331;53.362;55.932;2023-10-19T06:30:46;100472.25;;;7.17;60.68
78932;BME280;68331;53.362;55.932;2023-10-19T06:33:14;100478.28;;;7.28;60.41
78932;BME280;68331;53.362;55.932;2023-10-19T06:35:40;100473.00;;;7.31;60.34
78932;BME280;68331;53.362;55.932;2023-10-19T06:38:06;100472.03;;;7.41;60.46
78932;BME280;68331;53.362;55.932;2023-10-19T06:40:35;100471.13;;;7.45;60.00
78932;BME280;68331;53.362;55.932;2023-10-19T06:43:02;100483.47;;;7.36;60.22
78932;BME280;68331;53.362;55.932;2023-10-19T06:45:29;100487.75;;;7.46;59.87
78932;BME280;68331;53.362;55.932;2023-10-19T06:47:58;100486.81;;;7.52;59.80
78932;BME280;68331;53.362;55.932;2023-10-19T06:50:27;100491.06;;;7.65;59.63
78932;BME280;68331;53.362;55.932;2023-10-19T06:52:54;100494.41;;;7.81;59.11
78932;BME280;68331;53.362;55.932;2023-10-19T06:55:23;100495.16;;;7.93;58.68
78932;BME280;68331;53.362;55.932;2023-10-19T06:57:50;100504.75;;;7.99;58.32
78932;BME280;68331;53.362;55.932;2023-10-19T07:00:19;100513.50;;;8.01;58.52
78932;BME280;68331;53.362;55.932;2023-10-19T07:02:49;100509.13;;;7.99;57.85
78932;BME280;68331;53.362;55.932;2023-10-19T07:05:19;100513.44;;;8.06;57.81
78932;BME280;68331;53.362;55.932;2023-10-19T07:07:51;100510.81;;;8.07;57.44
78932;BME280;68331;53.362;55.932;2023-10-19T07:10:17;100517.00;;;7.99;57.31
78932;BME280;68331;53.362;55.932;2023-10-19T07:12:46;100518.69;;;8.06;57.10
78932;BME280;68331;53.362;55.932;2023-10-19T07:15:13;100517.66;;;8.21;56.23
78932;BME280;68331;53.362;55.932;2023-10-19T07:17:40;100519.28;;;8.29;55.94
78932;BME280;68331;53.362;55.932;2023-10-19T07:20:08;100499.22;;;8.22;55.68
78932;BME280;68331;53.362;55.932;2023-10-19T07:22:56;100523.75;;;8.24;55.75
78932;BME280;68331;53.362;55.932;2023-10-19T07:25:22;100515.84;;;8.23;55.82
78932;BME280;68331;53.362;55.932;2023-10-19T07:27:52;100533.50;;;8.13;56.24
78932;BME280;68331;53.362;55.932;2023-10-19T07:30:20;100526.34;;;8.26;56.50
78932;BME280;68331;53.362;55.932;2023-10-19T07:32:48;100518.22;;;8.49;55.91
78932;BME280;68331;53.362;55.932;2023-10-19T07:35:21;100530.38;;;8.59;55.14
78932;BME280;68331;53.362;55.932;2023-10-19T07:37:48;100527.66;;;8.64;55.52
78932;BME280;68331;53.362;55.932;2023-10-19T07:40:16;100533.75;;;8.69;55.58
78932;BME280;68331;53.362;55.932;2023-10-19T07:42:45;100528.50;;;8.67;55.11
78932;BME280;68331;53.362;55.932;2023-10-19T07:45:13;100537.34;;;8.61;55.04
78932;BME280;68331;53.362;55.932;2023-10-19T07:47:39;100530.44;;;8.53;54.66
78932;BME280;68331;53.362;55.932;2023-10-19T07:50:12;100523.44;;;8.52;54.74
78932;BME280;68331;53.362;55.932;2023-10-19T07:52:46;100528.66;;;8.56;54.63
78932;BME280;68331;53.362;55.932;2023-10-19T07:55:17;100528.44;;;8.72;54.21
78932;BME280;68331;53.362;55.932;2023-10-19T07:57:45;100520.22;;;8.95;53.65
78932;BME280;68331;53.362;55.932;2023-10-19T08:00:12;100516.53;;;9.08;53.43
78932;BME280;68331;53.362;55.932;2023-10-19T08:02:41;100518.13;;;9.20;53.20
78932;BME280;68331;53.362;55.932;2023-10-19T08:05:14;100524.06;;;9.32;52.88
78932;BME280;68331;53.362;55.932;2023-10-19T08:07:41;100525.59;;;9.44;52.55
78932;BME280;68331;53.362;55.932;2023-10-19T08:10:10;100514.75;;;9.63;52.30
78932;BME280;68331;53.362;55.932;2023-10-19T08:12:38;100512.84;;;9.72;52.13
78932;BME280;68331;53.362;55.932;2023-10-19T08:15:08;100512.72;;;9.78;51.86
78932;BME280;68331;53.362;55.932;2023-10-19T08:17:37;100495.94;;;9.84;51.92
78932;BME280;68331;53.362;55.932;2023-10-19T08:20:05;100510.41;;;10.08;51.59
78932;BME280;68331;53.362;55.932;2023-10-19T08:22:38;100496.44;;;10.05;51.11
78932;BME280;68331;53.362;55.932;2023-10-19T08:25:04;100505.28;;;10.02;51.11
78932;BME280;68331;53.362;55.932;2023-10-19T08:27:41;100506.84;;;10.12;50.66
78932;BME280;68331;53.362;55.932;2023-10-19T08:30:11;100510.31;;;10.14;50.59
78932;BME280;68331;53.362;55.932;2023-10-19T08:32:39;100508.06;;;10.41;50.28
78932;BME280;68331;53.362;55.932;2023-10-19T08:35:05;100499.72;;;10.61;49.83
78932;BME280;68331;53.362;55.932;2023-10-19T08:37:31;100498.72;;;10.66;49.65
78932;BME280;68331;53.362;55.932;2023-10-19T08:39:59;100492.53;;;10.69;49.80
78932;BME280;68331;53.362;55.932;2023-10-19T08:42:25;100495.09;;;10.72;49.56
78932;BME280;68331;53.362;55.932;2023-10-19T08:44:51;100476.31;;;10.84;48.82
78932;BME280;68331;53.362;55.932;2023-10-19T08:47:17;100475.22;;;10.94;48.69
78932;BME280;68331;53.362;55.932;2023-10-19T08:49:44;100484.91;;;10.94;48.70
78932;BME280;68331;53.362;55.932;2023-10-19T08:52:12;100477.59;;;11.05;48.57
78932;BME280;68331;53.362;55.932;2023-10-19T08:54:39;100478.53;;;11.04;48.66
78932;BME280;68331;53.362;55.932;2023-10-19T08:57:05;100467.72;;;11.13;48.73
78932;BME280;68331;53.362;55.932;2023-10-19T08:59:31;100463.97;;;11.22;48.82
78932;BME280;68331;53.362;55.932;2023-10-19T09:02:01;100464.69;;;11.30;48.50
78932;BME280;68331;53.362;55.932;2023-10-19T09:04:29;100467.19;;;11.35;48.11
78932;BME280;68331;53.362;55.932;2023-10-19T09:06:55;100467.25;;;11.33;48.02
78932;BME280;68331;53.362;55.932;2023-10-19T09:09:21;100462.69;;;11.38;47.81
78932;BME280;68331;53.362;55.932;2023-10-19T09:11:51;100474.22;;;11.70;47.15
78932;BME280;68331;53.362;55.932;2023-10-19T09:14:31;100470.25;;;11.88;45.06
78932;BME280;68331;53.362;55.932;2023-10-19T09:16:59;100472.06;;;11.86;44.47
78932;BME280;68331;53.362;55.932;2023-10-19T09:19:43;100467.81;;;12.13;43.63
78932;BME280;68331;53.362;55.932;2023-10-19T09:22:10;100460.50;;;12.21;43.35
78932;BME280;68331;53.362;55.932;2023-10-19T09:24:48;100460.41;;;12.24;43.21
78932;BME280;68331;53.362;55.932;2023-10-19T09:27:20;100453.13;;;12.01;43.37
78932;BME280;68331;53.362;55.932;2023-10-19T09:29:47;100467.38;;;12.28;42.82
78932;BME280;68331;53.362;55.932;2023-10-19T09:32:13;100458.78;;;12.79;42.28
78932;BME280;68331;53.362;55.932;2023-10-19T09:34:40;100464.09;;;13.06;41.60
78932;BME280;68331;53.362;55.932;2023-10-19T09:37:10;100462.94;;;13.15;41.07
78932;BME280;68331;53.362;55.932;2023-10-19T09:39:37;100463.66;;;13.20;40.73
78932;BME280;68331;53.362;55.932;2023-10-19T09:42:07;100448.69;;;13.19;40.96
78932;BME280;68331;53.362;55.932;2023-10-19T09:44:44;100462.50;;;13.00;40.35
78932;BME280;68331;53.362;55.932;2023-10-19T09:47:14;100460.69;;;12.74;40.78
78932;BME280;68331;53.362;55.932;2023-10-19T09:49:41;100456.81;;;12.56;40.95
78932;BME280;68331;53.362;55.932;2023-10-19T09:52:09;100462.47;;;12.44;40.83
78932;BME280;68331;53.362;55.932;2023-10-19T09:57:53;100459.97;;;12.40;40.93
78932;BME280;68331;53.362;55.932;2023-10-19T10:00:22;100457.38;;;12.38;40.91
78932;BME280;68331;53.362;55.932;2023-10-19T10:02:53;100456.31;;;12.44;41.09
78932;BME280;68331;53.362;55.932;2023-10-19T10:10:52;100446.09;;;12.61;40.96
78932;BME280;68331;53.362;55.932;2023-10-19T10:15:52;100453.53;;;12.48;40.24
78932;BME280;68331;53.362;55.932;2023-10-19T10:18:20;100448.00;;;12.26;40.88
78932;BME280;68331;53.362;55.932;2023-10-19T10:20:46;100440.91;;;12.28;41.14
78932;BME280;68331;53.362;55.932;2023-10-19T10:23:20;100449.75;;;12.27;41.16
78932;BME280;68331;53.362;55.932;2023-10-19T10:25:54;100449.13;;;12.19;40.85
78932;BME280;68331;53.362;55.932;2023-10-19T10:28:20;100449.06;;;12.21;41.13
78932;BME280;68331;53.362;55.932;2023-10-19T10:31:26;100453.75;;;12.11;41.08
78932;BME280;68331;53.362;55.932;2023-10-19T10:33:53;100456.69;;;12.00;41.11
78932;BME280;68331;53.362;55.932;2023-10-19T10:36:23;100454.41;;;11.86;40.97
78932;BME280;68331;53.362;55.932;2023-10-19T10:38:50;100457.06;;;11.86;41.33
78932;BME280;68331;53.362;55.932;2023-10-19T10:41:20;100443.03;;;11.83;41.48
78932;BME280;68331;53.362;55.932;2023-10-19T10:43:50;100439.59;;;11.79;41.43
78932;BME280;68331;53.362;55.932;2023-10-19T10:46:21;100446.66;;;11.79;41.54
78932;BME280;68331;53.362;55.932;2023-10-19T10:48:47;100443.03;;;11.83;41.49
78932;BME280;68331;53.362;55.932;2023-10-19T10:51:18;100429.81;;;11.83;41.84
78932;BME280;68331;53.362;55.932;2023-10-19T10:53:52;100432.50;;;11.81;41.53
78932;BME280;68331;53.362;55.932;2023-10-19T10:56:20;100437.03;;;11.78;41.57
78932;BME280;68331;53.362;55.932;2023-10-19T10:58:47;100421.16;;;11.78;41.28
78932;BME280;68331;53.362;55.932;2023-10-19T11:01:13;100430.97;;;11.73;41.47
78932;BME280;68331;53.362;55.932;2023-10-19T11:03:42;100430.13;;;11.72;41.47
78932;BME280;68331;53.362;55.932;2023-10-19T11:06:10;100424.81;;;11.72;41.54
78932;BME280;68331;53.362;55.932;2023-10-19T11:08:38;100423.09;;;11.71;41.09
78932;BME280;68331;53.362;55.932;2023-10-19T11:11:08;100424.03;;;11.69;41.36
78932;BME280;68331;53.362;55.932;2023-10-19T11:13:38;100420.53;;;11.68;41.41
78932;BME280;68331;53.362;55.932;2023-10-19T11:16:06;100430.22;;;11.68;41.68
78932;BME280;68331;53.362;55.932;2023-10-19T11:18:36;100431.81;;;11.75;41.73
78932;BME280;68331;53.362;55.932;2023-10-19T11:21:09;100430.94;;;11.74;41.38
78932;BME280;68331;53.362;55.932;2023-10-19T11:23:45;100427.38;;;11.75;41.50
78932;BME280;68331;53.362;55.932;2023-10-19T11:26:16;100430.91;;;11.76;41.52
78932;BME280;68331;53.362;55.932;2023-10-19T11:28:42;100431.84;;;11.73;41.17
78932;BME280;68331;53.362;55.932;2023-10-19T11:31:18;100423.09;;;11.71;41.42
78932;BME280;68331;53.362;55.932;2023-10-19T11:33:45;100423.13;;;11.70;41.76
78932;BME280;68331;53.362;55.932;2023-10-19T11:36:15;100420.09;;;11.51;42.05
78932;BME280;68331;53.362;55.932;2023-10-19T11:38:43;100412.34;;;11.45;41.96
78932;BME280;68331;53.362;55.932;2023-10-19T11:41:13;100428.13;;;11.48;42.19
78932;BME280;68331;53.362;55.932;2023-10-19T11:43:40;100421.22;;;11.42;41.91
78932;BME280;68331;53.362;55.932;2023-10-19T11:46:06;100418.63;;;11.40;41.69
78932;BME280;68331;53.362;55.932;2023-10-19T11:48:34;100423.16;;;11.35;41.67
78932;BME280;68331;53.362;55.932;2023-10-19T11:51:03;100417.00;;;11.35;41.99
78932;BME280;68331;53.362;55.932;2023-10-19T11:53:31;100427.22;;;11.49;41.77
78932;BME280;68331;53.362;55.932;2023-10-19T11:56:00;100428.78;;;11.56;41.51
78932;BME280;68331;53.362;55.932;2023-10-19T11:58:27;100425.22;;;11.57;41.29
78932;BME280;68331;53.362;55.932;2023-10-19T12:00:54;100412.94;;;11.56;41.09
78932;BME280;68331;53.362;55.932;2023-10-19T12:03:20;100424.38;;;11.56;41.30
78932;BME280;68331;53.362;55.932;2023-10-19T12:05:46;100411.31;;;11.50;41.64
78932;BME280;68331;53.362;55.932;2023-10-19T12:08:12;100413.19;;;11.45;41.52
78932;BME280;68331;53.362;55.932;2023-10-19T12:10:39;100418.69;;;11.37;41.75
78932;BME280;68331;53.362;55.932;2023-10-19T12:13:05;100413.72;;;11.25;41.89
78932;BME280;68331;53.362;55.932;2023-10-19T12:15:34;100415.78;;;11.14;42.06
78932;BME280;68331;53.362;55.932;2023-10-19T12:18:00;100424.16;;;10.96;42.41
78932;BME280;68331;53.362;55.932;2023-10-19T12:20:30;100423.59;;;10.81;42.81
78932;BME280;68331;53.362;55.932;2023-10-19T12:22:57;100421.47;;;10.60;42.95
78932;BME280;68331;53.362;55.932;2023-10-19T12:25:25;100423.59;;;10.42;43.33
78932;BME280;68331;53.362;55.932;2023-10-19T12:27:58;100423.91;;;10.29;43.08
78932;BME280;68331;53.362;55.932;2023-10-19T12:30:25;100427.63;;;10.17;43.35
78932;BME280;68331;53.362;55.932;2023-10-19T12:33:01;100426.09;;;10.07;43.62
78932;BME280;68331;53.362;55.932;2023-10-19T12:35:27;100418.44;;;9.94;43.79
78932;BME280;68331;53.362;55.932;2023-10-19T12:38:11;100426.50;;;9.87;44.23
78932;BME280;68331;53.362;55.932;2023-10-19T12:40:46;100426.81;;;9.70;44.73
78932;BME280;68331;53.362;55.932;2023-10-19T12:43:13;100434.97;;;9.56;45.04
78932;BME280;68331;53.362;55.932;2023-10-19T12:45:39;100433.56;;;9.38;45.05
78932;BME280;68331;53.362;55.932;2023-10-19T12:48:06;100435.50;;;9.28;45.51
78932;BME280;68331;53.362;55.932;2023-10-19T12:50:37;100436.47;;;9.21;45.81
78932;BME280;68331;53.362;55.932;2023-10-19T12:53:03;100425.16;;;9.16;46.03
78932;BME280;68331;53.362;55.932;2023-10-19T12:55:29;100433.97;;;9.12;46.52
78932;BME280;68331;53.362;55.932;2023-10-19T12:57:57;100429.84;;;8.97;46.90
78932;BME280;68331;53.362;55.932;2023-10-19T13:00:23;100432.66;;;8.83;47.46
78932;BME280;68331;53.362;55.932;2023-10-19T13:02:50;100439.03;;;8.70;47.76
78932;BME280;68331;53.362;55.932;2023-10-19T13:05:16;100447.97;;;8.58;48.27
78932;BME280;68331;53.362;55.932;2023-10-19T13:07:44;100446.47;;;8.41;48.20
78932;BME280;68331;53.362;55.932;2023-10-19T13:10:10;100445.69;;;8.29;48.60
78932;BME280;68331;53.362;55.932;2023-10-19T13:12:39;100449.31;;;8.21;48.73
78932;BME280;68331;53.362;55.932;2023-10-19T13:15:06;100455.50;;;8.15;48.88
78932;BME280;68331;53.362;55.932;2023-10-19T13:17:42;100453.88;;;8.05;48.99
78932;BME280;68331;53.362;55.932;2023-10-19T13:20:09;100442.69;;;7.89;49.29
78932;BME280;68331;53.362;55.932;2023-10-19T13:22:42;100445.38;;;7.83;49.78